createdAt,value
2019-03-09T00:02:18.329Z,9.43
2019-03-09T00:04:48.664Z,10.28
2019-03-09T00:07:19.019Z,11.18
2019-03-09T00:09:49.379Z,11.90
2019-03-09T00:12:19.723Z,9.78
2019-03-09T00:14:50.059Z,8.78
2019-03-09T00:17:20.384Z,10.70
2019-03-09T00:19:50.742Z,8.70
2019-03-09T00:22:21.073Z,11.00
2019-03-09T00:24:53.045Z,9.80
2019-03-09T00:27:29.886Z,12.37
2019-03-09T00:29:58.684Z,9.83
2019-03-09T00:32:29.044Z,11.53
2019-03-09T00:34:59.354Z,7.40
2019-03-09T00:37:29.694Z,9.90
2019-03-09T00:40:00.029Z,9.35
2019-03-09T00:42:30.370Z,8.45
2019-03-09T00:45:00.782Z,9.18
2019-03-09T00:47:31.116Z,8.03
2019-03-09T00:50:01.468Z,8.20
2019-03-09T00:52:32.875Z,8.48
2019-03-09T00:55:03.476Z,10.13
2019-03-09T00:57:33.810Z,11.08
2019-03-09T01:00:06.161Z,8.55
2019-03-09T01:02:36.592Z,9.65
2019-03-09T01:05:09.135Z,8.33
2019-03-09T01:07:39.476Z,8.98
2019-03-09T01:10:13.892Z,9.63
2019-03-09T01:12:44.230Z,8.03
2019-03-09T01:15:15.862Z,8.15
2019-03-09T01:17:46.206Z,10.53
2019-03-09T01:20:17.182Z,7.10
2019-03-09T01:22:47.677Z,7.85
2019-03-09T01:25:18.009Z,6.65
2019-03-09T01:27:48.346Z,8.00
2019-03-09T01:30:19.023Z,8.75
2019-03-09T01:32:49.376Z,5.62
2019-03-09T01:35:19.735Z,10.05
2019-03-09T01:37:50.071Z,8.58
2019-03-09T01:40:20.404Z,7.58
2019-03-09T01:42:50.762Z,8.00
2019-03-09T01:45:21.097Z,7.47
2019-03-09T01:47:51.435Z,7.08
2019-03-09T01:50:21.772Z,9.80
2019-03-09T01:52:52.100Z,7.75
2019-03-09T01:55:22.428Z,7.12
2019-03-09T01:57:52.825Z,8.73
2019-03-09T02:00:23.171Z,6.33
2019-03-09T02:02:53.502Z,8.73
2019-03-09T02:05:23.832Z,7.90
2019-03-09T02:07:54.166Z,6.03
2019-03-09T02:10:24.501Z,9.83
2019-03-09T02:12:54.839Z,7.12
2019-03-09T02:15:25.174Z,6.87
2019-03-09T02:17:55.529Z,7.30
2019-03-09T02:20:25.851Z,8.53
2019-03-09T02:22:56.180Z,7.97
2019-03-09T02:25:26.515Z,7.97
2019-03-09T02:27:56.859Z,6.78
2019-03-09T02:30:27.197Z,8.30
2019-03-09T02:32:57.534Z,6.75
2019-03-09T02:35:27.990Z,10.50
2019-03-09T02:38:00.941Z,8.63
2019-03-09T02:40:31.272Z,10.30
2019-03-09T02:43:01.603Z,8.35
2019-03-09T02:45:32.808Z,7.65
2019-03-09T02:48:03.153Z,6.72
2019-03-09T02:50:33.484Z,7.72
2019-03-09T02:53:03.822Z,7.80
2019-03-09T02:55:34.156Z,7.10
2019-03-09T02:58:04.477Z,8.75
2019-03-09T03:00:36.779Z,6.47
2019-03-09T03:03:07.971Z,11.38
2019-03-09T03:05:38.309Z,7.95
2019-03-09T03:08:08.638Z,9.78
2019-03-09T03:10:39.000Z,9.75
2019-03-09T03:13:09.339Z,11.43
2019-03-09T03:15:39.705Z,12.95
2019-03-09T03:18:10.061Z,8.10
2019-03-09T03:20:40.401Z,14.03
2019-03-09T03:23:10.745Z,14.58
2019-03-09T03:25:41.089Z,9.73
2019-03-09T03:28:11.440Z,13.20
2019-03-09T03:30:41.807Z,10.55
2019-03-09T03:33:13.113Z,9.80
2019-03-09T03:35:43.450Z,10.98
2019-03-09T03:38:13.797Z,12.10
2019-03-09T03:40:44.137Z,12.73
2019-03-09T03:43:16.160Z,12.65
2019-03-09T03:45:46.610Z,6.50
2019-03-09T03:48:16.966Z,13.70
2019-03-09T03:50:48.682Z,11.22
2019-03-09T03:53:19.013Z,8.75
2019-03-09T03:55:49.431Z,16.57
2019-03-09T03:58:20.176Z,12.03
2019-03-09T04:00:50.592Z,9.83
2019-03-09T04:03:21.002Z,10.00
2019-03-09T04:05:51.344Z,9.18
2019-03-09T04:08:21.762Z,9.58
2019-03-09T04:10:52.341Z,8.53
2019-03-09T04:13:22.649Z,14.33
2019-03-09T04:15:53.021Z,10.55
2019-03-09T04:18:23.359Z,8.58
2019-03-09T04:20:53.709Z,12.88
2019-03-09T04:23:24.053Z,9.53
2019-03-09T04:25:54.381Z,9.23
2019-03-09T04:28:24.784Z,8.35
2019-03-09T04:30:55.112Z,8.78
2019-03-09T04:33:25.449Z,9.75
2019-03-09T04:35:55.786Z,9.25
2019-03-09T04:38:26.116Z,9.95
2019-03-09T04:40:56.459Z,10.20
2019-03-09T04:43:26.804Z,9.80
2019-03-09T04:45:57.147Z,13.25
2019-03-09T04:48:27.479Z,10.03
2019-03-09T04:50:57.816Z,7.42
2019-03-09T04:53:28.150Z,11.05
2019-03-09T04:55:58.494Z,11.75
2019-03-09T04:58:28.833Z,6.65
2019-03-09T05:00:59.175Z,11.33
2019-03-09T05:03:29.523Z,14.00
2019-03-09T05:05:59.858Z,11.88
2019-03-09T05:08:40.693Z,7.08
2019-03-09T05:11:12.237Z,10.70
2019-03-09T05:13:43.314Z,9.25
2019-03-09T05:16:13.628Z,8.63
2019-03-09T05:18:43.973Z,8.53
2019-03-09T05:21:14.301Z,8.83
2019-03-09T05:23:44.652Z,8.10
2019-03-09T05:26:14.993Z,8.80
2019-03-09T05:28:45.325Z,10.45
2019-03-09T05:31:15.667Z,12.25
2019-03-09T05:33:46.013Z,9.40
2019-03-09T05:36:16.381Z,8.25
2019-03-09T05:38:46.712Z,9.30
2019-03-09T05:41:17.040Z,9.20
2019-03-09T05:43:47.376Z,10.55
2019-03-09T05:46:17.714Z,9.28
2019-03-09T05:48:48.044Z,8.85
2019-03-09T05:51:18.388Z,9.68
2019-03-09T05:53:48.739Z,11.88
2019-03-09T05:56:19.080Z,6.75
2019-03-09T05:58:49.417Z,9.63
2019-03-09T06:01:19.762Z,9.55
2019-03-09T06:03:50.122Z,9.58
2019-03-09T06:06:20.453Z,6.37
2019-03-09T06:08:50.787Z,13.45
2019-03-09T06:11:21.120Z,6.60
2019-03-09T06:13:52.432Z,9.33
2019-03-09T06:16:22.862Z,8.80
2019-03-09T06:18:53.196Z,9.68
2019-03-09T06:21:23.540Z,8.90
2019-03-09T06:23:53.876Z,12.13
2019-03-09T06:26:24.227Z,10.38
2019-03-09T06:28:54.567Z,10.20
2019-03-09T06:31:25.885Z,9.43
2019-03-09T06:33:57.182Z,14.73
2019-03-09T06:36:49.424Z,12.65
2019-03-09T06:39:19.761Z,11.10
2019-03-09T06:42:00.463Z,10.58
2019-03-09T06:44:30.766Z,11.57
2019-03-09T06:47:01.184Z,11.50
2019-03-09T06:49:31.520Z,9.93
2019-03-09T06:52:01.931Z,10.72
2019-03-09T06:54:32.289Z,11.85
2019-03-09T06:57:02.734Z,9.53
2019-03-09T06:59:33.068Z,9.93
2019-03-09T07:02:03.486Z,12.60
2019-03-09T07:04:33.831Z,11.70
2019-03-09T07:07:04.339Z,6.12
2019-03-09T07:09:34.677Z,8.13
2019-03-09T07:12:05.090Z,8.73
2019-03-09T07:14:58.119Z,7.50
2019-03-09T07:17:28.445Z,13.62
2019-03-09T07:19:58.783Z,10.23
2019-03-09T07:22:29.122Z,13.58
2019-03-09T07:24:59.472Z,11.30
2019-03-09T07:27:29.810Z,10.55
2019-03-09T07:30:00.329Z,13.35
2019-03-09T07:32:30.756Z,8.93
2019-03-09T07:35:01.077Z,15.80
2019-03-09T07:37:31.971Z,14.60
2019-03-09T07:40:02.305Z,12.50
2019-03-09T07:42:34.066Z,9.20
2019-03-09T07:45:10.563Z,13.25
2019-03-09T07:47:40.919Z,10.43
2019-03-09T07:50:13.969Z,14.25
2019-03-09T07:52:44.368Z,11.93
2019-03-09T07:55:20.838Z,14.68
2019-03-09T07:57:52.064Z,15.23
2019-03-09T08:00:22.941Z,15.80
2019-03-09T08:02:53.272Z,11.05
2019-03-09T08:05:23.609Z,13.90
2019-03-09T08:07:53.945Z,13.80
2019-03-09T08:10:29.202Z,17.87
2019-03-09T08:12:59.567Z,11.45
2019-03-09T08:15:29.970Z,13.68
2019-03-09T08:18:01.385Z,11.48
2019-03-09T08:20:31.738Z,14.78
2019-03-09T08:23:02.069Z,13.45
2019-03-09T08:25:32.407Z,16.30
2019-03-09T08:28:02.756Z,16.48
2019-03-09T08:30:34.709Z,19.23
2019-03-09T08:33:05.132Z,14.33
2019-03-09T08:35:35.462Z,14.35
2019-03-09T08:38:05.802Z,15.48
2019-03-09T08:40:36.132Z,13.65
2019-03-09T08:43:06.460Z,14.30
2019-03-09T08:45:36.821Z,13.95
2019-03-09T08:48:07.174Z,17.90
2019-03-09T08:50:37.490Z,16.23
2019-03-09T08:53:07.877Z,18.77
2019-03-09T08:55:38.220Z,16.00
2019-03-09T08:58:08.543Z,9.25
2019-03-09T09:00:38.978Z,15.38
2019-03-09T09:03:09.321Z,12.85
2019-03-09T09:05:43.700Z,15.08
2019-03-09T09:08:17.047Z,11.65
2019-03-09T09:10:47.402Z,15.35
2019-03-09T09:13:17.735Z,13.95
2019-03-09T09:15:48.216Z,10.45
2019-03-09T09:18:18.614Z,11.85
2019-03-09T09:20:48.974Z,12.98
2019-03-09T09:23:19.317Z,14.95
2019-03-09T09:25:49.710Z,14.60
2019-03-09T09:28:20.028Z,13.53
2019-03-09T09:30:50.378Z,9.48
2019-03-09T09:33:20.722Z,10.68
2019-03-09T09:35:51.060Z,12.93
2019-03-09T09:38:21.417Z,10.78
2019-03-09T09:40:51.860Z,13.35
2019-03-09T09:43:23.174Z,14.38
2019-03-09T09:45:53.518Z,18.30
2019-03-09T09:48:23.853Z,19.23
2019-03-09T09:50:54.195Z,9.78
2019-03-09T09:53:24.536Z,15.03
2019-03-09T09:55:54.899Z,12.23
2019-03-09T09:58:25.236Z,14.50
2019-03-09T10:00:55.581Z,15.95
2019-03-09T10:03:25.925Z,13.35
2019-03-09T10:05:56.264Z,12.93
2019-03-09T10:08:27.578Z,16.70
2019-03-09T10:10:57.927Z,12.23
2019-03-09T10:13:28.264Z,13.88
2019-03-09T10:15:58.607Z,13.72
2019-03-09T10:18:28.944Z,14.53
2019-03-09T10:20:59.288Z,22.27
2019-03-09T10:23:29.630Z,12.28
2019-03-09T10:26:00.048Z,10.05
2019-03-09T10:28:30.380Z,16.27
2019-03-09T10:31:00.729Z,17.15
2019-03-09T10:33:31.076Z,14.25
2019-03-09T10:36:01.423Z,18.65
2019-03-09T10:38:31.767Z,15.55
2019-03-09T10:41:02.119Z,10.95
2019-03-09T10:43:35.418Z,15.68
2019-03-09T10:46:05.763Z,15.70
2019-03-09T10:48:36.120Z,13.43
2019-03-09T10:51:06.451Z,12.55
2019-03-09T10:53:36.873Z,17.05
2019-03-09T10:56:09.188Z,15.48
2019-03-09T10:58:39.530Z,13.70
2019-03-09T11:01:10.440Z,15.72
2019-03-09T11:03:40.785Z,14.20
2019-03-09T11:06:11.125Z,20.35
2019-03-09T11:08:41.457Z,16.12
2019-03-09T11:11:12.775Z,14.18
2019-03-09T11:13:51.374Z,13.85
2019-03-09T11:16:15.261Z,11.95
2019-03-09T11:18:45.599Z,15.88
2019-03-09T11:21:16.015Z,11.88
2019-03-09T11:23:46.438Z,12.63
2019-03-09T11:26:16.776Z,14.50
2019-03-09T11:28:47.118Z,11.25
2019-03-09T11:31:17.456Z,12.53
2019-03-09T11:33:47.794Z,13.15
2019-03-09T11:36:18.153Z,11.33
2019-03-09T11:38:48.493Z,9.88
2019-03-09T11:41:19.544Z,13.75
2019-03-09T11:43:49.909Z,14.75
2019-03-09T11:46:20.260Z,16.57
2019-03-09T11:48:50.590Z,16.40
2019-03-09T11:51:20.949Z,15.30
2019-03-09T11:53:53.720Z,15.15
2019-03-09T11:56:23.983Z,15.30
2019-03-09T11:58:54.318Z,20.62
2019-03-09T12:01:24.670Z,20.48
2019-03-09T12:03:55.010Z,24.27
2019-03-09T12:06:25.363Z,24.00
2019-03-09T12:08:55.713Z,26.07
2019-03-09T12:11:26.054Z,16.02
2019-03-09T12:13:56.421Z,22.35
2019-03-09T12:16:26.763Z,27.40
2019-03-09T12:18:57.117Z,26.73
2019-03-09T12:21:27.461Z,23.25
2019-03-09T12:23:57.807Z,23.45
2019-03-09T12:26:28.155Z,26.12
2019-03-09T12:28:58.510Z,26.05
2019-03-09T12:31:28.848Z,24.45
2019-03-09T12:33:59.203Z,34.45
2019-03-09T12:36:29.542Z,22.07
2019-03-09T12:38:59.956Z,24.18
2019-03-09T12:41:30.322Z,31.55
2019-03-09T12:44:00.673Z,24.12
2019-03-09T12:46:31.989Z,23.57
2019-03-09T12:49:02.411Z,29.80
2019-03-09T12:51:32.763Z,34.65
2019-03-09T12:54:03.113Z,30.85
2019-03-09T12:56:33.466Z,24.63
2019-03-09T13:02:14.989Z,30.48
2019-03-09T13:04:45.994Z,24.82
2019-03-09T13:07:16.841Z,25.02
2019-03-09T13:09:52.568Z,30.50
2019-03-09T13:12:23.285Z,30.35
2019-03-09T13:15:04.644Z,32.05
2019-03-09T13:17:34.577Z,30.55
2019-03-09T13:20:07.889Z,29.37
2019-03-09T13:22:40.503Z,31.93
2019-03-09T13:25:11.805Z,30.85
2019-03-09T13:27:42.807Z,23.90
2019-03-09T13:30:19.728Z,30.57
2019-03-09T13:32:50.845Z,26.70
2019-03-09T13:35:23.062Z,26.12
2019-03-09T13:37:53.762Z,18.57
2019-03-09T13:40:24.316Z,19.52
2019-03-09T13:42:58.977Z,29.63
2019-03-09T13:45:29.604Z,30.65
2019-03-09T13:48:02.881Z,30.40
2019-03-09T13:50:34.963Z,36.20
2019-03-09T13:53:07.150Z,29.57
2019-03-09T13:55:37.537Z,26.30
2019-03-09T13:58:10.839Z,19.57
2019-03-09T14:00:45.921Z,16.20
2019-03-09T14:03:16.997Z,11.95
2019-03-09T14:05:47.652Z,13.90
2019-03-09T14:08:18.420Z,10.18
2019-03-09T14:10:48.966Z,6.00
2019-03-09T14:13:22.714Z,3.85
2019-03-09T14:15:57.327Z,2.27
2019-03-09T14:18:32.419Z,4.28
2019-03-09T14:21:04.390Z,4.85
2019-03-09T14:23:37.067Z,1.85
2019-03-09T14:26:12.226Z,3.37
2019-03-09T14:28:42.971Z,3.27
2019-03-09T14:31:14.113Z,10.53
2019-03-09T14:33:44.920Z,7.58
2019-03-09T14:36:15.718Z,12.43
2019-03-09T14:38:46.432Z,14.38
2019-03-09T14:41:20.244Z,16.17
2019-03-09T14:43:56.295Z,11.53
2019-03-09T14:46:26.751Z,12.23
2019-03-09T14:48:57.482Z,10.38
2019-03-09T14:51:29.651Z,8.70
2019-03-09T14:54:00.654Z,12.28
2019-03-09T14:59:25.941Z,5.83
2019-03-09T15:01:58.115Z,5.15
2019-03-09T15:04:33.361Z,6.30
2019-03-09T15:07:09.879Z,9.70
2019-03-09T15:09:45.316Z,5.50
2019-03-09T15:12:15.911Z,4.90
2019-03-09T15:14:46.482Z,8.60
2019-03-09T15:17:17.233Z,8.78
2019-03-09T15:19:51.022Z,11.80
2019-03-09T15:22:22.089Z,7.42
2019-03-09T15:24:52.700Z,10.32
2019-03-09T15:27:27.032Z,14.18
2019-03-09T15:29:58.108Z,11.05
2019-03-09T15:32:40.584Z,11.35
2019-03-09T15:35:19.811Z,9.70
2019-03-09T15:37:56.479Z,6.50
2019-03-09T15:40:28.855Z,12.07
2019-03-09T15:43:09.834Z,16.55
2019-03-09T15:45:43.365Z,13.03
2019-03-09T15:48:15.101Z,16.45
2019-03-09T15:50:45.752Z,16.62
2019-03-09T15:53:17.892Z,12.45
2019-03-09T15:55:54.496Z,11.73
2019-03-09T15:58:28.095Z,12.10
2019-03-09T16:01:01.328Z,15.63
2019-03-09T16:03:32.962Z,10.60
2019-03-09T16:06:05.281Z,9.85
2019-03-09T16:08:38.425Z,6.10
2019-03-09T16:11:12.213Z,15.48
2019-03-09T16:13:49.009Z,8.35
2019-03-09T16:16:21.067Z,6.42
2019-03-09T16:18:57.310Z,7.58
2019-03-09T16:21:28.161Z,7.28
2019-03-09T16:23:58.785Z,6.37
2019-03-09T16:26:29.331Z,8.75
2019-03-09T16:28:59.606Z,5.00
2019-03-09T16:31:29.945Z,8.38
2019-03-09T16:34:00.282Z,13.72
2019-03-09T16:36:30.706Z,12.88
2019-03-09T16:39:01.044Z,5.92
2019-03-09T16:41:33.284Z,5.55
2019-03-09T16:44:03.627Z,9.88
2019-03-09T16:46:34.039Z,7.12
2019-03-09T16:49:04.384Z,9.55
2019-03-09T16:51:34.738Z,8.78
2019-03-09T16:54:05.073Z,9.08
2019-03-09T16:56:35.426Z,8.53
2019-03-09T16:59:05.764Z,10.28
2019-03-09T17:01:36.107Z,5.55
2019-03-09T17:04:06.450Z,12.05
2019-03-09T17:06:36.862Z,8.13
2019-03-09T17:09:07.431Z,9.45
2019-03-09T17:11:37.876Z,8.78
2019-03-09T17:14:08.247Z,8.98
2019-03-09T17:16:38.576Z,9.40
2019-03-09T17:19:08.916Z,7.47
2019-03-09T17:21:39.275Z,8.03
2019-03-09T17:24:11.233Z,13.68
2019-03-09T17:26:41.590Z,5.67
2019-03-09T17:29:11.938Z,7.33
2019-03-09T17:31:42.288Z,14.07
2019-03-09T17:34:12.670Z,15.15
2019-03-09T17:36:43.108Z,8.90
2019-03-09T17:39:13.557Z,9.13
2019-03-09T17:41:43.907Z,8.90
2019-03-09T17:44:14.280Z,8.40
2019-03-09T17:46:44.615Z,8.40
2019-03-09T17:49:14.995Z,10.55
2019-03-09T17:51:45.386Z,10.43
2019-03-09T17:54:15.744Z,5.90
2019-03-09T17:56:46.099Z,11.12
2019-03-09T17:59:16.466Z,8.43
2019-03-09T18:01:46.810Z,8.85
2019-03-09T18:04:17.169Z,10.10
2019-03-09T18:06:47.549Z,8.80
2019-03-09T18:09:17.848Z,11.30
2019-03-09T18:11:48.238Z,12.80
2019-03-09T18:14:18.608Z,19.98
2019-03-09T18:16:52.672Z,13.62
2019-03-09T18:19:21.011Z,13.00
2019-03-09T18:21:59.096Z,13.58
2019-03-09T18:24:29.450Z,15.90
2019-03-09T18:27:00.044Z,15.53
2019-03-09T18:29:30.388Z,14.65
2019-03-09T18:32:00.727Z,13.38
2019-03-09T18:34:32.049Z,12.73
2019-03-09T18:37:02.402Z,11.53
2019-03-09T18:39:32.794Z,21.95
2019-03-09T18:42:03.132Z,18.87
2019-03-09T18:44:33.482Z,19.73
2019-03-09T18:47:03.888Z,13.53
2019-03-09T18:49:34.241Z,11.78
2019-03-09T18:52:04.611Z,15.10
2019-03-09T18:54:34.980Z,11.80
2019-03-09T18:57:05.350Z,16.42
2019-03-09T18:59:36.624Z,16.60
2019-03-09T19:02:07.009Z,11.48
2019-03-09T19:04:37.355Z,13.48
2019-03-09T19:07:07.699Z,15.43
2019-03-09T19:09:38.057Z,15.05
2019-03-09T19:12:08.410Z,11.45
2019-03-09T19:14:41.400Z,14.40
2019-03-09T19:17:11.780Z,13.83
2019-03-09T19:19:42.816Z,15.98
2019-03-09T19:22:13.157Z,17.70
2019-03-09T19:24:43.538Z,14.63
2019-03-09T19:27:13.974Z,17.62
2019-03-09T19:29:44.349Z,8.63
2019-03-09T19:32:14.778Z,17.73
2019-03-09T19:34:45.080Z,15.55
2019-03-09T19:37:15.476Z,16.45
2019-03-09T19:39:45.869Z,14.95
2019-03-09T19:42:16.300Z,11.68
2019-03-09T19:44:46.680Z,13.88
2019-03-09T19:47:16.972Z,11.25
2019-03-09T19:49:47.344Z,11.90
2019-03-09T19:52:17.722Z,12.58
2019-03-09T19:54:48.069Z,11.30
2019-03-09T19:57:18.431Z,15.32
2019-03-09T19:59:48.801Z,13.35
2019-03-09T20:02:19.145Z,13.15
2019-03-09T20:04:49.582Z,10.08
2019-03-09T20:07:19.916Z,13.48
2019-03-09T20:09:50.281Z,10.53
2019-03-09T20:12:20.895Z,21.52
2019-03-09T20:14:51.343Z,10.98
2019-03-09T20:17:21.691Z,15.08
2019-03-09T20:19:52.143Z,13.95
2019-03-09T20:22:22.633Z,21.05
2019-03-09T20:24:53.008Z,9.30
2019-03-09T20:27:23.907Z,10.08
2019-03-09T20:29:55.847Z,24.90
2019-03-09T20:32:26.242Z,13.58
2019-03-09T20:34:56.543Z,10.85
2019-03-09T20:37:27.886Z,14.35
2019-03-09T20:39:59.852Z,12.80
2019-03-09T20:42:30.259Z,10.18
2019-03-09T20:45:00.536Z,23.22
2019-03-09T20:47:31.012Z,13.80
2019-03-09T20:50:03.007Z,10.90
2019-03-09T20:52:35.943Z,13.53
2019-03-09T20:55:07.432Z,12.95
2019-03-09T20:57:37.785Z,12.68
2019-03-09T21:00:17.370Z,10.85
2019-03-09T21:02:47.722Z,16.12
2019-03-09T21:05:18.168Z,14.13
2019-03-09T21:07:48.585Z,12.65
2019-03-09T21:10:20.343Z,16.12
2019-03-09T21:13:11.585Z,16.17
2019-03-09T21:15:41.986Z,17.42
2019-03-09T21:18:12.407Z,20.17
2019-03-09T21:20:42.830Z,11.18
2019-03-09T21:23:13.183Z,16.02
2019-03-09T21:25:43.541Z,16.27
2019-03-09T21:28:13.902Z,15.15
2019-03-09T21:30:44.249Z,13.78
2019-03-09T21:33:14.591Z,14.65
2019-03-09T21:35:44.968Z,14.45
2019-03-09T21:38:15.299Z,10.43
2019-03-09T21:40:45.678Z,16.90
2019-03-09T21:43:16.017Z,10.85
2019-03-09T21:45:46.396Z,13.60
2019-03-09T21:48:16.749Z,12.15
2019-03-09T21:50:47.162Z,11.22
2019-03-09T21:53:17.449Z,10.88
2019-03-09T21:55:47.803Z,12.20
2019-03-09T21:58:18.134Z,8.48
2019-03-09T22:00:48.633Z,10.20
2019-03-09T22:03:18.909Z,19.40
2019-03-09T22:05:49.268Z,15.43
2019-03-09T22:08:19.679Z,18.55
2019-03-09T22:10:50.015Z,12.50
2019-03-09T22:13:20.352Z,14.95
2019-03-09T22:15:50.756Z,11.35
2019-03-09T22:18:21.094Z,16.70
2019-03-09T22:20:51.532Z,10.93
2019-03-09T22:23:21.862Z,10.90
2019-03-09T22:25:52.226Z,15.43
2019-03-09T22:28:22.578Z,20.48
2019-03-09T22:30:52.958Z,12.43
2019-03-09T22:33:23.286Z,15.15
2019-03-09T22:35:53.649Z,15.72
2019-03-09T22:38:24.973Z,19.87
2019-03-09T22:40:55.350Z,15.10
2019-03-09T22:43:25.695Z,19.27
2019-03-09T22:45:57.645Z,16.57
2019-03-09T22:48:27.987Z,21.02
2019-03-09T22:50:58.348Z,14.13
2019-03-09T22:53:28.701Z,19.87
2019-03-09T22:55:59.097Z,13.75
2019-03-09T22:58:29.442Z,15.78
2019-03-09T23:01:01.331Z,20.08
2019-03-09T23:03:32.294Z,17.25
2019-03-09T23:06:02.784Z,16.65
2019-03-09T23:08:40.504Z,13.48
2019-03-09T23:11:10.890Z,12.33
2019-03-09T23:13:41.245Z,13.40
2019-03-09T23:16:11.603Z,17.05
2019-03-09T23:18:41.952Z,17.23
2019-03-09T23:21:12.305Z,19.87
2019-03-09T23:23:42.642Z,17.52
2019-03-09T23:26:13.014Z,11.38
2019-03-09T23:28:47.886Z,11.65
2019-03-09T23:31:19.215Z,14.87
2019-03-09T23:33:49.554Z,15.93
2019-03-09T23:36:19.910Z,12.28
2019-03-09T23:38:50.305Z,17.00
2019-03-09T23:41:20.674Z,17.77
2019-03-09T23:43:51.081Z,13.15
2019-03-09T23:46:21.509Z,12.82
2019-03-09T23:48:53.453Z,12.37
2019-03-09T23:51:23.798Z,10.20
2019-03-09T23:53:54.147Z,18.80
2019-03-09T23:56:24.508Z,16.52
2019-03-09T23:58:54.848Z,12.13
